createdAt,value
2018-08-23T00:01:34.516Z,99537.72
2018-08-23T00:04:08.174Z,99538.80
2018-08-23T00:06:40.919Z,99535.77
2018-08-23T00:09:10.701Z,99536.06
2018-08-23T00:11:46.008Z,99534.69
2018-08-23T00:14:16.960Z,99542.86
2018-08-23T00:16:47.765Z,99543.38
2018-08-23T00:19:17.996Z,99537.38
2018-08-23T00:21:49.310Z,99537.91
2018-08-23T00:24:23.973Z,99532.45
2018-08-23T00:26:56.284Z,99533.24
2018-08-23T00:29:28.218Z,99530.79
2018-08-23T00:32:02.824Z,99532.42
2018-08-23T00:34:36.930Z,99528.87
2018-08-23T00:37:07.353Z,99531.03
2018-08-23T00:39:37.240Z,99533.24
2018-08-23T00:42:10.286Z,99535.66
2018-08-23T00:44:59.117Z,99532.91
2018-08-23T00:47:34.260Z,99537.27
2018-08-23T00:50:04.118Z,99532.34
2018-08-23T00:52:42.799Z,99532.88
2018-08-23T00:55:30.822Z,99524.39
2018-08-23T00:58:00.909Z,99530.66
2018-08-23T01:00:30.781Z,99522.73
2018-08-23T01:03:03.465Z,99524.09
2018-08-23T01:05:37.302Z,99522.73
2018-08-23T01:08:08.399Z,99524.06
2018-08-23T01:10:40.222Z,99520.52
2018-08-23T01:13:10.021Z,99522.95
2018-08-23T01:15:40.128Z,99522.64
2018-08-23T01:18:20.772Z,99519.92
2018-08-23T01:20:52.045Z,99520.47
2018-08-23T01:23:22.044Z,99530.51
2018-08-23T01:25:52.370Z,99525.34
2018-08-23T01:28:22.233Z,99519.06
2018-08-23T01:30:52.027Z,99512.79
2018-08-23T01:33:22.748Z,99518.56
2018-08-23T01:35:53.032Z,99511.36
2018-08-23T01:38:22.958Z,99508.63
2018-08-23T01:40:59.408Z,99506.66
2018-08-23T01:43:29.237Z,99503.67
2018-08-23T01:45:59.052Z,99504.50
2018-08-23T01:48:29.154Z,99505.55
2018-08-23T01:50:58.956Z,99503.38
2018-08-23T01:53:35.111Z,99505.83
2018-08-23T01:56:04.878Z,99503.66
2018-08-23T01:58:35.593Z,99497.40
2018-08-23T02:01:16.786Z,99498.69
2018-08-23T02:03:46.892Z,99494.33
2018-08-23T02:06:16.766Z,99496.06
2018-08-23T02:08:47.432Z,99494.18
2018-08-23T02:11:17.338Z,99496.06
2018-08-23T02:13:49.872Z,99493.31
2018-08-23T02:16:19.783Z,99495.69
2018-08-23T02:18:49.600Z,99495.45
2018-08-23T02:21:19.419Z,99500.02
2018-08-23T02:23:51.953Z,99500.54
2018-08-23T02:26:21.832Z,99501.35
2018-08-23T02:28:51.762Z,99505.55
2018-08-23T02:31:21.643Z,99507.36
2018-08-23T02:33:51.745Z,99503.47
2018-08-23T02:36:23.597Z,99504.56
2018-08-23T02:38:59.772Z,99507.03
2018-08-23T02:41:29.859Z,99501.27
2018-08-23T02:43:59.754Z,99507.20
2018-08-23T02:46:31.813Z,99510.97
2018-08-23T02:49:01.748Z,99506.08
2018-08-23T02:51:40.669Z,99506.59
2018-08-23T02:54:14.962Z,99501.92
2018-08-23T02:56:49.875Z,99504.00
2018-08-23T02:59:19.792Z,99508.36
2018-08-23T03:01:50.558Z,99498.55
2018-08-23T03:04:22.459Z,99499.39
2018-08-23T03:06:55.648Z,99503.73
2018-08-23T03:09:35.316Z,99504.21
2018-08-23T03:12:08.417Z,99496.63
2018-08-23T03:14:39.130Z,99495.21
2018-08-23T03:17:21.788Z,99496.55
2018-08-23T03:20:16.179Z,99496.09
2018-08-23T03:22:48.139Z,99493.16
2018-08-23T03:25:19.371Z,99490.67
2018-08-23T03:27:49.246Z,99491.19
2018-08-23T03:30:19.886Z,99500.39
2018-08-23T03:32:49.735Z,99494.87
2018-08-23T03:35:19.635Z,99501.66
2018-08-23T03:37:49.461Z,99500.78
2018-08-23T03:40:19.467Z,99498.89
2018-08-23T03:42:49.250Z,99497.48
2018-08-23T03:45:24.120Z,99500.30
2018-08-23T03:47:55.387Z,99501.68
2018-08-23T03:50:25.275Z,99503.86
2018-08-23T03:52:55.689Z,99503.08
2018-08-23T03:55:26.838Z,99508.81
2018-08-23T03:58:01.639Z,99502.03
2018-08-23T04:00:36.598Z,99504.78
2018-08-23T04:03:10.368Z,99498.95
2018-08-23T04:05:40.235Z,99499.56
2018-08-23T04:08:10.228Z,99498.41
2018-08-23T04:10:40.172Z,99499.97
2018-08-23T04:13:09.980Z,99496.30
2018-08-23T04:15:39.758Z,99486.96
2018-08-23T04:18:12.353Z,99495.75
2018-08-23T04:20:57.048Z,99488.68
2018-08-23T04:23:26.924Z,99488.06
2018-08-23T04:25:56.695Z,99493.50
2018-08-23T04:28:26.574Z,99497.23
2018-08-23T04:30:56.355Z,99489.84
2018-08-23T04:33:26.111Z,99493.92
2018-08-23T04:35:56.001Z,99494.69
2018-08-23T04:38:25.821Z,99490.64
2018-08-23T04:40:59.923Z,99493.13
2018-08-23T04:43:29.927Z,99491.77
2018-08-23T04:46:00.361Z,99489.38
2018-08-23T04:48:30.169Z,99493.39
2018-08-23T04:50:59.945Z,99486.23
2018-08-23T04:53:29.761Z,99487.23
2018-08-23T04:55:59.556Z,99482.81
2018-08-23T04:58:29.376Z,99486.42
2018-08-23T05:00:59.143Z,99488.61
2018-08-23T05:03:28.996Z,99485.33
2018-08-23T05:05:58.780Z,99488.31
2018-08-23T05:08:28.633Z,99486.69
2018-08-23T05:10:58.479Z,99489.67
2018-08-23T05:13:28.304Z,99481.61
2018-08-23T05:15:58.118Z,99485.57
2018-08-23T05:18:27.905Z,99484.60
2018-08-23T05:20:57.719Z,99484.83
2018-08-23T05:23:27.655Z,99485.63
2018-08-23T05:26:00.306Z,99488.56
2018-08-23T05:28:30.198Z,99485.14
2018-08-23T05:31:00.089Z,99488.95
2018-08-23T05:33:29.908Z,99484.77
2018-08-23T05:35:59.788Z,99482.19
2018-08-23T05:38:29.661Z,99488.02
2018-08-23T05:41:04.396Z,99483.23
2018-08-23T05:43:34.248Z,99486.16
2018-08-23T05:46:04.113Z,99483.53
2018-08-23T05:48:33.971Z,99479.38
2018-08-23T05:51:07.728Z,99481.52
2018-08-23T05:53:51.679Z,99478.56
2018-08-23T05:56:21.540Z,99470.56
2018-08-23T05:58:51.575Z,99468.48
2018-08-23T06:01:21.390Z,99467.84
2018-08-23T06:03:51.223Z,99464.14
2018-08-23T06:06:21.005Z,99464.90
2018-08-23T06:08:55.030Z,99467.87
2018-08-23T06:11:24.789Z,99465.91
2018-08-23T06:13:54.559Z,99459.77
2018-08-23T06:16:24.318Z,99455.58
2018-08-23T06:18:54.196Z,99464.75
2018-08-23T06:21:24.100Z,99467.77
2018-08-23T06:23:55.172Z,99460.77
2018-08-23T06:26:52.270Z,99474.13
2018-08-23T06:29:25.931Z,99469.18
2018-08-23T06:32:03.126Z,99462.77
2018-08-23T06:34:45.927Z,99461.99
2018-08-23T06:37:17.043Z,99464.51
2018-08-23T06:39:46.972Z,99448.88
2018-08-23T06:42:16.942Z,99459.41
2018-08-23T06:44:53.661Z,99460.70
2018-08-23T06:47:25.018Z,99450.83
2018-08-23T06:49:55.705Z,99455.86
2018-08-23T06:52:50.344Z,99451.68
2018-08-23T06:55:37.388Z,99452.27
2018-08-23T06:58:07.187Z,99455.91
2018-08-23T07:00:37.083Z,99448.84
2018-08-23T07:03:07.013Z,99441.38
2018-08-23T07:05:36.919Z,99454.45
2018-08-23T07:08:06.814Z,99451.38
2018-08-23T07:10:36.609Z,99443.94
2018-08-23T07:13:06.728Z,99447.05
2018-08-23T07:15:36.528Z,99446.44
2018-08-23T07:18:10.623Z,99447.19
2018-08-23T07:20:40.576Z,99449.27
2018-08-23T07:23:41.546Z,99454.52
2018-08-23T07:26:11.400Z,99446.38
2018-08-23T07:28:41.308Z,99448.45
2018-08-23T07:31:11.118Z,99455.44
2018-08-23T07:33:41.603Z,99454.06
2018-08-23T07:36:26.527Z,99444.66
2018-08-23T07:38:56.961Z,99449.72
2018-08-23T07:41:26.972Z,99446.09
2018-08-23T07:43:56.881Z,99449.16
2018-08-23T07:46:26.723Z,99449.53
2018-08-23T07:48:56.582Z,99440.80
2018-08-23T07:51:26.840Z,99446.38
2018-08-23T07:54:00.953Z,99446.02
2018-08-23T07:56:30.831Z,99446.22
2018-08-23T07:59:00.778Z,99443.26
2018-08-23T08:01:32.107Z,99440.81
2018-08-23T08:04:02.036Z,99437.06
2018-08-23T08:06:32.162Z,99436.23
2018-08-23T08:09:02.327Z,99440.20
2018-08-23T08:11:50.362Z,99440.50
2018-08-23T08:14:25.548Z,99434.58
2018-08-23T08:16:59.870Z,99426.97
2018-08-23T08:19:34.364Z,99431.69
2018-08-23T08:22:04.293Z,99432.51
2018-08-23T08:24:34.192Z,99435.58
2018-08-23T08:27:04.136Z,99431.52
2018-08-23T08:29:39.002Z,99429.73
2018-08-23T08:32:10.941Z,99435.75
2018-08-23T08:34:45.068Z,99433.66
2018-08-23T08:37:14.900Z,99426.48
2018-08-23T08:39:44.890Z,99428.77
2018-08-23T08:42:14.886Z,99424.23
2018-08-23T08:44:46.167Z,99412.52
2018-08-23T08:47:15.929Z,99415.88
2018-08-23T08:49:45.774Z,99412.47
2018-08-23T08:52:15.869Z,99410.05
2018-08-23T08:54:45.741Z,99402.58
2018-08-23T08:57:15.609Z,99403.08
2018-08-23T08:59:45.574Z,99397.45
2018-08-23T09:02:15.432Z,99398.27
2018-08-23T09:04:45.289Z,99392.08
2018-08-23T09:07:15.084Z,99393.34
2018-08-23T09:09:46.202Z,99391.06
2018-08-23T09:12:16.045Z,99388.52
2018-08-23T09:14:46.516Z,99388.50
2018-08-23T09:17:41.244Z,99388.23
2018-08-23T09:20:14.661Z,99381.98
2018-08-23T09:22:49.435Z,99380.33
2018-08-23T09:25:43.426Z,99382.38
2018-08-23T09:28:13.243Z,99371.76
2018-08-23T09:30:43.528Z,99373.92
2018-08-23T09:33:18.405Z,99371.11
2018-08-23T09:35:48.289Z,99365.19
2018-08-23T09:38:18.085Z,99369.33
2018-08-23T09:40:47.898Z,99364.44
2018-08-23T09:43:17.763Z,99365.87
2018-08-23T09:45:47.709Z,99372.19
2018-08-23T09:48:17.535Z,99368.91
2018-08-23T09:50:47.391Z,99364.33
2018-08-23T09:53:22.375Z,99367.75
2018-08-23T09:55:52.725Z,99363.23
2018-08-23T09:58:27.716Z,99365.69
2018-08-23T10:01:02.559Z,99365.41
2018-08-23T10:03:37.415Z,99363.52
2018-08-23T10:06:12.267Z,99359.26
2018-08-23T10:08:47.224Z,99365.09
2018-08-23T10:11:22.504Z,99358.20
2018-08-23T10:13:57.331Z,99356.55
2018-08-23T10:16:32.343Z,99356.22
2018-08-23T10:19:10.127Z,99359.09
2018-08-23T10:21:44.979Z,99357.58
2018-08-23T10:24:19.970Z,99351.56
2018-08-23T10:26:49.952Z,99358.58
2018-08-23T10:29:19.871Z,99351.23
2018-08-23T10:31:49.711Z,99347.91
2018-08-23T10:34:19.492Z,99347.36
2018-08-23T10:36:49.403Z,99343.45
2018-08-23T10:39:19.224Z,99350.16
2018-08-23T10:41:49.126Z,99347.26
2018-08-23T10:44:18.976Z,99348.27
2018-08-23T10:46:54.009Z,99353.55
2018-08-23T10:49:23.943Z,99349.84
2018-08-23T10:51:53.748Z,99345.60
2018-08-23T10:54:23.590Z,99345.33
2018-08-23T10:56:53.449Z,99340.76
2018-08-23T10:59:23.310Z,99341.26
2018-08-23T11:01:53.120Z,99347.57
2018-08-23T11:04:22.946Z,99343.89
2018-08-23T11:06:58.756Z,99343.92
2018-08-23T11:09:33.808Z,99338.72
2018-08-23T11:12:03.755Z,99337.06
2018-08-23T11:14:38.638Z,99338.55
2018-08-23T11:17:13.637Z,99333.95
2018-08-23T11:19:48.617Z,99332.00
2018-08-23T11:22:18.639Z,99328.41
2018-08-23T11:24:48.582Z,99326.33
2018-08-23T11:27:18.434Z,99320.39
2018-08-23T11:29:48.332Z,99321.52
2018-08-23T11:32:18.264Z,99315.05
2018-08-23T11:34:48.079Z,99312.66
2018-08-23T11:37:17.955Z,99309.41
2018-08-23T11:39:49.229Z,99310.03
2018-08-23T11:42:19.081Z,99310.33
2018-08-23T11:44:48.858Z,99308.13
2018-08-23T11:47:18.696Z,99306.70
2018-08-23T11:49:48.575Z,99309.36
2018-08-23T11:52:18.505Z,99308.94
2018-08-23T11:54:48.415Z,99295.30
2018-08-23T11:57:18.327Z,99287.09
2018-08-23T11:59:48.151Z,99286.88
2018-08-23T12:02:17.977Z,99288.47
2018-08-23T12:04:48.010Z,99282.67
2018-08-23T12:07:17.797Z,99295.84
2018-08-23T12:09:47.650Z,99291.33
2018-08-23T12:12:18.077Z,99298.81
2018-08-23T12:14:51.967Z,99292.91
2018-08-23T12:17:21.780Z,99298.22
2018-08-23T12:19:51.610Z,99284.14
2018-08-23T12:22:25.445Z,99295.48
2018-08-23T12:24:55.287Z,99285.61
2018-08-23T12:27:25.128Z,99280.23
2018-08-23T12:29:54.896Z,99274.58
2018-08-23T12:32:26.481Z,99271.35
2018-08-23T12:34:56.524Z,99276.16
2018-08-23T12:37:31.447Z,99276.63
2018-08-23T12:40:06.379Z,99266.20
2018-08-23T12:42:41.377Z,99256.44
2018-08-23T12:45:11.172Z,99256.17
2018-08-23T12:47:41.030Z,99250.41
2018-08-23T12:50:10.935Z,99240.97
2018-08-23T12:52:40.726Z,99236.94
2018-08-23T12:55:10.591Z,99228.63
2018-08-23T12:57:40.500Z,99236.38
2018-08-23T13:00:10.416Z,99234.73
2018-08-23T13:02:40.546Z,99234.70
2018-08-23T13:05:10.362Z,99240.83
2018-08-23T13:07:40.510Z,99236.36
2018-08-23T13:10:10.444Z,99231.86
2018-08-23T13:12:40.396Z,99234.81
2018-08-23T13:15:10.217Z,99235.70
2018-08-23T13:17:40.035Z,99229.96
2018-08-23T13:20:10.076Z,99222.83
2018-08-23T13:22:40.450Z,99226.50
2018-08-23T13:25:14.990Z,99230.68
2018-08-23T13:27:44.771Z,99228.61
2018-08-23T13:30:14.609Z,99227.39
2018-08-23T13:32:44.630Z,99225.48
2018-08-23T13:35:14.824Z,99225.93
2018-08-23T13:37:44.683Z,99232.05
2018-08-23T13:40:16.636Z,99211.70
2018-08-23T13:42:47.227Z,99220.03
2018-08-23T13:45:17.338Z,99217.20
2018-08-23T13:47:47.220Z,99207.14
2018-08-23T13:50:17.029Z,99202.49
2018-08-23T13:52:46.920Z,99204.95
2018-08-23T13:55:16.760Z,99194.02
2018-08-23T13:57:46.654Z,99193.31
2018-08-23T14:00:21.612Z,99182.39
2018-08-23T14:02:51.482Z,99177.08
2018-08-23T14:05:21.337Z,99174.84
2018-08-23T14:07:51.191Z,99164.80
2018-08-23T14:10:21.040Z,99170.23
2018-08-23T14:12:50.976Z,99168.31
2018-08-23T14:15:25.870Z,99165.66
2018-08-23T14:17:55.666Z,99173.05
2018-08-23T14:20:25.564Z,99169.41
2018-08-23T14:22:55.436Z,99157.09
2018-08-23T14:25:25.269Z,99162.34
2018-08-23T14:27:55.130Z,99161.93
2018-08-23T14:30:24.957Z,99164.47
2018-08-23T14:32:54.977Z,99158.80
2018-08-23T14:35:24.915Z,99160.20
2018-08-23T14:37:55.822Z,99154.44
2018-08-23T14:40:25.752Z,99153.61
2018-08-23T14:42:55.628Z,99147.89
2018-08-23T14:45:31.102Z,99141.19
2018-08-23T14:48:06.018Z,99141.16
2018-08-23T14:50:36.575Z,99135.89
2018-08-23T14:53:07.177Z,99129.91
2018-08-23T14:55:42.113Z,99126.66
2018-08-23T14:58:12.363Z,99125.77
2018-08-23T15:00:42.261Z,99121.36
2018-08-23T15:03:12.300Z,99121.45
2018-08-23T15:05:42.346Z,99118.77
2018-08-23T15:08:12.187Z,99108.52
2018-08-23T15:10:42.032Z,99107.63
2018-08-23T15:13:11.937Z,99112.43
2018-08-23T15:15:46.776Z,99114.32
2018-08-23T15:18:17.710Z,99113.67
2018-08-23T15:20:47.478Z,99106.03
2018-08-23T15:23:17.454Z,99101.34
2018-08-23T15:26:42.413Z,99105.05
2018-08-23T15:29:27.242Z,99097.67
2018-08-23T15:32:12.026Z,99099.63
2018-08-23T15:34:56.855Z,99095.89
2018-08-23T15:37:41.824Z,99092.03
2018-08-23T15:40:26.688Z,99093.20
2018-08-23T15:43:11.486Z,99092.51
2018-08-23T15:45:56.362Z,99093.37
2018-08-23T15:48:41.220Z,99097.89
2018-08-23T15:51:26.133Z,99097.19
2018-08-23T15:54:11.222Z,99096.21
2018-08-23T15:56:56.094Z,99089.61
2018-08-23T15:59:40.952Z,99086.87
2018-08-23T16:02:25.758Z,99080.32
2018-08-23T16:05:10.607Z,99092.99
2018-08-23T16:07:55.487Z,99089.23
2018-08-23T16:10:40.454Z,99085.02
2018-08-23T16:13:25.333Z,99076.92
2018-08-23T16:16:15.456Z,99064.70
2018-08-23T16:19:05.373Z,99067.64
2018-08-23T16:21:56.762Z,99060.92
2018-08-23T16:24:41.714Z,99061.42
2018-08-23T16:27:26.525Z,99056.20
2018-08-23T16:30:11.482Z,99044.98
2018-08-23T16:32:56.339Z,99042.01
2018-08-23T16:35:41.591Z,99040.70
2018-08-23T16:38:26.521Z,99047.71
2018-08-23T16:41:11.553Z,99049.47
2018-08-23T16:43:56.521Z,99050.51
2018-08-23T16:46:41.365Z,99050.63
2018-08-23T16:49:26.215Z,99052.22
2018-08-23T16:52:11.048Z,99057.08
2018-08-23T16:54:55.913Z,99051.41
2018-08-23T16:57:40.732Z,99052.14
2018-08-23T17:00:25.678Z,99056.17
2018-08-23T17:03:10.678Z,99057.03
2018-08-23T17:05:55.532Z,99053.83
2018-08-23T17:08:40.381Z,99056.44
2018-08-23T17:11:25.191Z,99050.41
2018-08-23T17:14:13.542Z,99041.37
2018-08-23T17:17:03.533Z,99037.48
2018-08-23T17:19:48.398Z,99041.53
2018-08-23T17:22:33.212Z,99035.94
2018-08-23T17:25:18.264Z,99038.95
2018-08-23T17:28:03.143Z,99042.90
2018-08-23T17:30:48.064Z,99042.32
2018-08-23T17:33:32.775Z,99033.16
2018-08-23T17:36:17.892Z,99037.33
2018-08-23T17:39:02.740Z,99037.21
2018-08-23T17:41:47.613Z,99036.69
2018-08-23T17:44:32.478Z,99035.15
2018-08-23T17:47:17.387Z,99032.25
2018-08-23T17:50:02.176Z,99029.28
2018-08-23T17:52:47.011Z,99032.87
2018-08-23T17:55:31.874Z,99033.23
2018-08-23T17:58:16.639Z,99032.20
2018-08-23T18:01:02.048Z,99040.02
2018-08-23T18:03:46.936Z,99036.64
2018-08-23T18:06:31.929Z,99040.05
2018-08-23T18:09:16.709Z,99040.22
2018-08-23T18:12:01.528Z,99043.20
2018-08-23T18:14:46.388Z,99051.47
2018-08-23T18:17:31.272Z,99049.31
2018-08-23T18:20:16.181Z,99040.60
2018-08-23T18:23:01.098Z,99047.71
2018-08-23T18:25:45.976Z,99053.27
2018-08-23T18:28:30.848Z,99050.20
2018-08-23T18:31:15.733Z,99053.09
2018-08-23T18:34:00.608Z,99055.52
2018-08-23T18:36:45.483Z,99056.25
2018-08-23T18:39:30.451Z,99063.39
2018-08-23T18:42:15.425Z,99068.76
2018-08-23T18:45:00.337Z,99066.67
2018-08-23T18:47:45.412Z,99083.50
2018-08-23T18:50:30.396Z,99070.09
2018-08-23T18:53:15.305Z,99070.55
2018-08-23T18:56:00.145Z,99080.08
2018-08-23T18:58:45.185Z,99078.08
2018-08-23T19:01:30.105Z,99079.30
2018-08-23T19:04:15.060Z,99074.47
2018-08-23T19:07:00.035Z,99074.25
2018-08-23T19:09:45.060Z,99074.61
2018-08-23T19:12:31.100Z,99071.69
2018-08-23T19:15:19.384Z,99070.89
2018-08-23T19:18:04.761Z,99073.48
2018-08-23T19:20:49.653Z,99086.93
2018-08-23T19:23:34.519Z,99090.15
2018-08-23T19:26:19.382Z,99102.45
2018-08-23T19:29:04.781Z,99093.54
2018-08-23T19:31:49.736Z,99101.50
2018-08-23T19:34:34.916Z,99101.88
2018-08-23T19:37:19.914Z,99108.16
2018-08-23T19:40:04.923Z,99101.65
2018-08-23T19:42:49.901Z,99101.80
2018-08-23T19:45:39.837Z,99118.72
2018-08-23T19:48:24.733Z,99116.45
2018-08-23T19:51:09.719Z,99118.54
2018-08-23T19:53:54.641Z,99121.79
2018-08-23T19:56:39.562Z,99121.01
2018-08-23T19:59:24.446Z,99122.19
2018-08-23T20:02:09.571Z,99118.39
2018-08-23T20:04:54.506Z,99122.27
2018-08-23T20:07:39.447Z,99141.36
2018-08-23T20:10:24.429Z,99168.15
2018-08-23T20:13:09.300Z,99200.81
2018-08-23T20:15:54.136Z,99217.29
2018-08-23T20:18:39.014Z,99226.55
2018-08-23T20:21:23.857Z,99225.02
2018-08-23T20:24:08.848Z,99233.38
2018-08-23T20:26:56.336Z,99236.23
2018-08-23T20:29:41.287Z,99238.50
2018-08-23T20:32:26.315Z,99246.61
2018-08-23T20:35:11.080Z,99256.60
2018-08-23T20:37:55.915Z,99261.37
2018-08-23T20:40:40.824Z,99272.85
2018-08-23T20:43:25.762Z,99287.84
2018-08-23T20:46:10.664Z,99296.60
2018-08-23T20:48:55.508Z,99294.91
2018-08-23T20:51:40.677Z,99302.94
2018-08-23T20:54:25.679Z,99310.89
2018-08-23T20:57:10.507Z,99285.75
2018-08-23T20:59:55.384Z,99285.13
2018-08-23T21:02:40.341Z,99276.31
2018-08-23T21:05:25.189Z,99267.72
2018-08-23T21:08:10.109Z,99279.00
2018-08-23T21:10:55.011Z,99311.41
2018-08-23T21:13:39.835Z,99317.56
2018-08-23T21:16:25.535Z,99298.94
2018-08-23T21:19:10.300Z,99277.02
2018-08-23T21:21:55.224Z,99260.95
2018-08-23T21:24:40.133Z,99268.97
2018-08-23T21:27:25.018Z,99265.09
2018-08-23T21:30:09.915Z,99258.93
2018-08-23T21:32:54.703Z,99247.56
2018-08-23T21:35:39.582Z,99230.58
2018-08-23T21:38:24.430Z,99237.27
2018-08-23T21:41:09.312Z,99237.36
2018-08-23T21:43:54.246Z,99238.65
2018-08-23T21:46:39.009Z,99231.78
2018-08-23T21:49:23.847Z,99229.46
2018-08-23T21:52:08.979Z,99223.28
2018-08-23T21:54:53.885Z,99225.33
2018-08-23T21:57:38.699Z,99225.33
2018-08-23T22:00:23.571Z,99221.05
2018-08-23T22:03:08.671Z,99213.16
2018-08-23T22:05:53.571Z,99209.30
2018-08-23T22:08:38.512Z,99202.52
2018-08-23T22:11:23.431Z,99201.48
2018-08-23T22:14:08.432Z,99198.66
2018-08-23T22:16:53.370Z,99200.56
2018-08-23T22:19:38.310Z,99194.69
2018-08-23T22:22:23.250Z,99188.36
2018-08-23T22:25:08.211Z,99189.52
2018-08-23T22:27:53.271Z,99187.23
2018-08-23T22:30:38.772Z,99178.48
2018-08-23T22:33:23.646Z,99187.27
2018-08-23T22:36:08.556Z,99177.91
2018-08-23T22:38:53.497Z,99180.01
2018-08-23T22:41:38.513Z,99175.38
2018-08-23T22:44:23.403Z,99172.92
2018-08-23T22:47:08.324Z,99172.64
2018-08-23T22:49:53.389Z,99163.45
2018-08-23T22:52:38.316Z,99162.03
2018-08-23T22:55:23.357Z,99163.59
2018-08-23T22:58:08.309Z,99163.58
2018-08-23T23:00:53.185Z,99173.21
2018-08-23T23:03:43.058Z,99180.16
2018-08-23T23:06:27.981Z,99187.23
2018-08-23T23:09:14.529Z,99187.73
2018-08-23T23:11:59.598Z,99174.64
2018-08-23T23:14:44.395Z,99163.92
2018-08-23T23:17:29.321Z,99161.28
2018-08-23T23:20:14.185Z,99171.31
2018-08-23T23:22:59.093Z,99155.23
2018-08-23T23:25:43.965Z,99154.24
2018-08-23T23:28:28.919Z,99156.75
2018-08-23T23:31:13.758Z,99155.07
2018-08-23T23:33:58.718Z,99155.03
2018-08-23T23:36:43.692Z,99147.34
2018-08-23T23:39:28.618Z,99146.05
2018-08-23T23:42:13.463Z,99142.52
2018-08-23T23:44:58.376Z,99136.39
2018-08-23T23:47:43.530Z,99130.06
2018-08-23T23:50:28.318Z,99138.68
2018-08-23T23:53:13.119Z,99149.52
2018-08-23T23:55:57.971Z,99147.62
2018-08-23T23:58:42.923Z,99152.27
